Time;durP1;ratioP1;P1;durP2;ratioP2;P2;SDS_P1;SDS_P2;PMS_P1;PMS_P2;Temp;Humidity;BMP_temperature;BMP_pressure;BME280_temperature;BME280_humidity;BME280_pressure;Samples;Min_cycle;Max_cycle;Signal;HPM_P1;HPM_P2
2022/05/09 00:01:51;;;;;;;8.93;3.03;;;17.80;75.70;;;;;;4994877;28;20212;-83
2022/05/09 00:04:16;;;;;;;10.33;3.00;;;17.70;76.40;;;;;;4994822;28;20666;-83
2022/05/09 00:06:42;;;;;;;9.53;3.10;;;17.40;77.20;;;;;;5010247;28;20252;-83
2022/05/09 00:09:08;;;;;;;9.07;3.40;;;17.20;78.20;;;;;;5013710;28;20266;-83
2022/05/09 00:11:33;;;;;;;8.63;3.80;;;17.20;78.80;;;;;;5007148;28;20174;-83
2022/05/09 00:14:00;;;;;;;10.83;2.80;;;17.10;79.40;;;;;;5014149;28;20217;-84
2022/05/09 00:16:28;;;;;;;9.60;3.77;;;17.10;80.30;;;;;;5014418;28;20189;-83
2022/05/09 00:18:53;;;;;;;8.10;2.90;;;17.00;80.50;;;;;;5005619;28;20259;-83
2022/05/09 00:21:19;;;;;;;10.60;3.30;;;17.00;80.80;;;;;;4994503;28;20643;-83
2022/05/09 00:23:45;;;;;;;8.53;3.10;;;17.00;81.00;;;;;;4994626;28;20179;-83
2022/05/09 00:26:11;;;;;;;8.53;3.43;;;17.00;81.50;;;;;;4994586;28;20229;-82
2022/05/09 00:28:37;;;;;;;9.90;3.70;;;16.90;81.50;;;;;;4994488;28;20250;-83
2022/05/09 00:31:02;;;;;;;8.17;3.20;;;16.90;81.70;;;;;;4995612;28;20214;-82
2022/05/09 00:33:28;;;;;;;11.10;3.40;;;16.90;82.20;;;;;;4999105;28;20205;-83
2022/05/09 00:35:54;;;;;;;10.73;3.53;;;16.70;83.50;;;;;;4997914;28;20261;-82
2022/05/09 00:38:19;;;;;;;8.60;2.80;;;16.80;83.00;;;;;;4997911;28;20649;-82
2022/05/09 00:43:35;;;;;;;10.57;3.40;;;16.70;83.60;;;;;;5020911;28;20188;-83
2022/05/09 00:46:02;;;;;;;7.00;3.27;;;16.50;84.80;;;;;;4999055;28;20177;-83
2022/05/09 00:48:28;;;;;;;11.20;3.90;;;16.50;85.10;;;;;;4997757;28;20215;-83
2022/05/09 00:50:55;;;;;;;8.40;3.40;;;16.50;85.60;;;;;;5015163;28;20185;-83
2022/05/09 00:53:21;;;;;;;9.10;3.53;;;16.40;85.60;;;;;;4998885;28;20166;-83
2022/05/09 00:55:51;;;;;;;11.27;3.27;;;16.80;84.20;;;;;;5017088;28;20287;-83
2022/05/09 00:58:35;;;;;;;7.50;3.43;;;16.80;84.60;;;;;;4998608;28;20175;-83
2022/05/09 01:01:03;;;;;;;9.30;3.60;;;16.80;84.70;;;;;;5003514;28;20191;-83
2022/05/09 01:04:02;;;;;;;12.63;4.43;;;16.70;85.20;;;;;;5016681;28;20176;-83
2022/05/09 01:06:28;;;;;;;7.83;3.53;;;16.60;85.40;;;;;;4991954;28;20224;-83
2022/05/09 01:08:53;;;;;;;21.60;4.47;;;16.50;86.30;;;;;;5019050;28;20213;-82
2022/05/09 01:11:23;;;;;;;7.50;3.50;;;16.30;87.60;;;;;;5003159;28;20606;-86
2022/05/09 01:13:53;;;;;;;8.70;3.77;;;16.40;87.80;;;;;;5012635;28;20231;-86
2022/05/09 01:16:20;;;;;;;8.47;3.47;;;16.30;89.00;;;;;;5017751;28;20185;-86
2022/05/09 01:18:46;;;;;;;6.80;3.40;;;16.10;90.00;;;;;;5011139;28;20227;-85
2022/05/09 01:21:36;;;;;;;8.77;3.10;;;16.10;90.20;;;;;;4998232;28;20256;-86
2022/05/09 01:24:04;;;;;;;7.23;3.30;;;16.00;90.60;;;;;;4998279;28;20232;-85
2022/05/09 01:26:29;;;;;;;9.57;3.30;;;16.00;91.00;;;;;;5000059;28;20315;-86
2022/05/09 01:29:01;;;;;;;8.23;3.57;;;15.90;91.30;;;;;;5009802;28;20711;-86
2022/05/09 01:31:27;;;;;;;11.70;3.93;;;15.90;91.40;;;;;;5035061;28;20181;-86
2022/05/09 01:33:53;;;;;;;12.00;3.90;;;15.90;91.60;;;;;;5034835;28;20208;-86
2022/05/09 01:36:28;;;;;;;11.13;3.43;;;15.80;91.90;;;;;;5017269;28;20269;-85
2022/05/09 01:39:08;;;;;;;8.23;3.83;;;15.70;92.30;;;;;;5006285;28;20216;-86
2022/05/09 01:41:38;;;;;;;8.93;3.50;;;15.60;92.70;;;;;;5007649;28;20191;-85
2022/05/09 01:44:05;;;;;;;9.87;3.67;;;15.70;92.90;;;;;;5011403;28;20192;-85
2022/05/09 01:46:32;;;;;;;12.30;4.17;;;15.80;92.70;;;;;;5034853;28;20176;-85
2022/05/09 01:51:46;;;;;;;11.40;3.50;;;15.80;92.80;;;;;;5015146;28;20168;-86
2022/05/09 01:54:13;;;;;;;12.80;4.57;;;15.80;92.60;;;;;;4997312;28;20217;-84
2022/05/09 01:56:40;;;;;;;9.93;4.30;;;15.70;93.10;;;;;;5025513;28;20266;-85
2022/05/09 01:59:08;;;;;;;9.03;3.40;;;15.50;93.60;;;;;;5016583;28;20179;-85
2022/05/09 02:01:41;;;;;;;8.13;4.03;;;15.50;94.00;;;;;;5014817;28;20275;-85
2022/05/09 02:04:06;;;;;;;8.27;4.17;;;15.50;94.10;;;;;;5016801;28;20251;-85
2022/05/09 02:06:32;;;;;;;9.47;4.13;;;15.40;94.50;;;;;;5016677;28;20683;-84
2022/05/09 02:08:58;;;;;;;13.37;4.40;;;15.30;94.90;;;;;;5016579;28;20176;-85
2022/05/09 02:11:23;;;;;;;9.20;3.50;;;15.30;95.20;;;;;;5003051;28;20186;-85
2022/05/09 02:13:49;;;;;;;11.53;4.17;;;15.20;95.70;;;;;;5016208;28;20204;-85
2022/05/09 02:16:14;;;;;;;9.77;3.73;;;15.30;95.70;;;;;;5016461;28;20179;-86
2022/05/09 02:18:41;;;;;;;9.87;3.90;;;15.20;95.90;;;;;;5011295;28;20197;-85
2022/05/09 02:21:07;;;;;;;8.73;3.93;;;15.20;96.20;;;;;;5008690;28;20184;-86
2022/05/09 02:23:33;;;;;;;12.17;4.10;;;15.20;96.30;;;;;;5016487;28;20271;-85
2022/05/09 02:26:00;;;;;;;7.07;3.87;;;15.30;96.10;;;;;;5016188;28;20255;-85
2022/05/09 02:28:25;;;;;;;10.17;4.07;;;15.50;96.00;;;;;;5009100;28;20757;-85
2022/05/09 02:30:51;;;;;;;8.47;3.80;;;15.40;95.70;;;;;;4996329;28;20261;-85
2022/05/09 02:33:17;;;;;;;9.10;4.20;;;15.40;95.70;;;;;;4996820;28;20667;-85
2022/05/09 02:35:43;;;;;;;10.17;4.30;;;15.50;95.80;;;;;;5014006;28;20209;-85
2022/05/09 02:38:09;;;;;;;7.70;3.90;;;15.30;96.40;;;;;;4996690;28;20625;-85
2022/05/09 02:40:36;;;;;;;8.87;3.63;;;15.20;96.70;;;;;;4999720;28;20229;-85
2022/05/09 02:43:02;;;;;;;7.73;4.00;;;15.10;96.90;;;;;;5001651;28;20192;-85
2022/05/09 02:45:29;;;;;;;12.77;4.00;;;14.90;97.40;;;;;;4996531;28;20168;-85
2022/05/09 02:47:55;;;;;;;11.13;4.63;;;15.00;97.60;;;;;;4997534;28;20637;-85
2022/05/09 02:50:22;;;;;;;7.77;3.60;;;15.10;97.40;;;;;;5015976;28;20187;-85
2022/05/09 02:52:49;;;;;;;7.73;4.33;;;15.20;97.30;;;;;;5016126;28;20203;-86
2022/05/09 02:55:15;;;;;;;8.47;3.77;;;15.00;97.70;;;;;;5015930;28;20691;-86
2022/05/09 02:57:41;;;;;;;9.50;3.83;;;14.80;98.30;;;;;;5015676;28;20172;-85
2022/05/09 03:00:11;;;;;;;8.30;3.90;;;14.90;98.30;;;;;;5015414;28;20186;-85
2022/05/09 03:02:37;;;;;;;9.70;4.10;;;14.80;98.50;;;;;;5015231;28;20690;-85
2022/05/09 03:05:04;;;;;;;7.50;4.63;;;14.90;98.30;;;;;;5016899;28;20192;-85
2022/05/09 03:07:29;;;;;;;9.97;3.80;;;14.80;98.60;;;;;;5013138;28;20181;-86
2022/05/09 03:09:55;;;;;;;11.10;4.23;;;14.70;99.10;;;;;;5010543;28;20207;-85
2022/05/09 03:12:20;;;;;;;11.10;4.27;;;14.50;99.50;;;;;;5003554;28;20263;-85
2022/05/09 03:14:47;;;;;;;9.67;4.13;;;14.50;99.90;;;;;;5015096;28;20212;-85
2022/05/09 03:17:14;;;;;;;11.40;4.80;;;14.40;99.90;;;;;;5032998;28;20251;-85
2022/05/09 03:19:40;;;;;;;8.83;4.37;;;14.30;99.90;;;;;;5015579;28;20271;-85
2022/05/09 03:22:05;;;;;;;7.53;4.30;;;14.40;99.90;;;;;;5014193;28;20203;-85
2022/05/09 03:24:31;;;;;;;8.47;4.23;;;14.40;99.90;;;;;;4995942;28;20213;-85
2022/05/09 03:26:59;;;;;;;9.90;4.63;;;14.60;99.90;;;;;;4995775;28;20186;-85
2022/05/09 03:29:25;;;;;;;11.00;4.03;;;14.40;99.90;;;;;;4996855;28;20190;-85
2022/05/09 03:31:52;;;;;;;12.53;4.83;;;14.40;99.90;;;;;;4995809;28;20204;-85
2022/05/09 03:34:19;;;;;;;10.90;4.70;;;14.40;99.90;;;;;;4995822;28;20254;-85
2022/05/09 03:36:45;;;;;;;10.20;4.67;;;14.30;99.90;;;;;;4995825;28;20180;-85
2022/05/09 03:39:11;;;;;;;8.00;3.87;;;14.30;99.90;;;;;;4995816;28;20728;-85
2022/05/09 03:41:36;;;;;;;9.90;4.87;;;14.10;99.90;;;;;;4995951;28;20683;-85
2022/05/09 03:44:03;;;;;;;11.73;4.63;;;14.10;99.90;;;;;;5003346;28;20220;-84
2022/05/09 03:46:29;;;;;;;6.60;4.20;;;14.10;99.90;;;;;;5013786;28;20701;-85
2022/05/09 03:48:54;;;;;;;14.33;4.90;;;14.00;99.90;;;;;;5015310;28;20285;-85
2022/05/09 03:51:20;;;;;;;9.27;5.07;;;14.00;99.90;;;;;;5015387;28;20186;-85
2022/05/09 03:53:45;;;;;;;10.13;5.30;;;14.00;99.90;;;;;;5015183;28;20214;-82
2022/05/09 03:56:12;;;;;;;12.83;5.07;;;14.20;99.90;;;;;;5015303;28;20236;-85
2022/05/09 03:58:39;;;;;;;14.20;5.10;;;14.20;99.90;;;;;;5006786;28;20704;-84
2022/05/09 04:01:05;;;;;;;11.63;4.70;;;14.10;99.90;;;;;;4995694;28;20181;-85
2022/05/09 04:03:31;;;;;;;11.80;4.33;;;14.00;99.90;;;;;;4995785;28;20178;-84
2022/05/09 04:05:57;;;;;;;10.50;4.77;;;14.10;99.90;;;;;;4996355;28;20685;-85
2022/05/09 04:08:23;;;;;;;10.23;4.90;;;14.10;99.90;;;;;;5000373;28;20226;-85
2022/05/09 04:10:51;;;;;;;7.70;4.63;;;14.00;99.90;;;;;;5009568;28;20636;-85
2022/05/09 04:13:17;;;;;;;9.57;4.30;;;14.10;99.90;;;;;;5009739;28;20180;-85
2022/05/09 04:18:43;;;;;;;11.63;4.83;;;14.00;99.90;;;;;;5017151;28;20225;-85
2022/05/09 04:21:11;;;;;;;10.13;4.70;;;13.90;99.90;;;;;;4999307;28;20271;-85
2022/05/09 04:23:38;;;;;;;12.67;4.70;;;13.90;99.90;;;;;;4999447;28;20190;-84
2022/05/09 04:26:04;;;;;;;9.47;4.87;;;14.00;99.90;;;;;;4998962;28;20180;-85
2022/05/09 04:28:31;;;;;;;12.00;5.00;;;13.90;99.90;;;;;;5008209;28;20743;-85
2022/05/09 04:30:57;;;;;;;10.97;5.43;;;13.90;99.90;;;;;;5017342;28;20187;-85
2022/05/09 04:33:22;;;;;;;12.83;4.90;;;13.80;99.90;;;;;;5018515;28;20187;-85
2022/05/09 04:35:48;;;;;;;10.27;4.80;;;13.80;99.90;;;;;;5018529;28;20308;-85
2022/05/09 04:38:22;;;;;;;6.20;4.10;;;13.80;99.90;;;;;;5018098;28;20240;-84
2022/05/09 04:40:51;;;;;;;7.90;4.87;;;13.90;99.90;;;;;;5011641;28;20228;-85
2022/05/09 04:43:23;;;;;;;9.67;5.07;;;14.00;99.90;;;;;;4998817;28;20264;-85
2022/05/09 04:45:49;;;;;;;17.77;5.53;;;13.90;99.90;;;;;;5016021;28;20190;-85
2022/05/09 04:48:21;;;;;;;12.73;6.00;;;13.90;99.90;;;;;;5013382;28;20247;-85
2022/05/09 04:50:47;;;;;;;11.90;5.83;;;13.80;99.90;;;;;;4998754;28;20195;-85
2022/05/09 04:53:12;;;;;;;9.77;5.00;;;13.80;99.90;;;;;;5001308;28;20175;-85
2022/05/09 04:55:38;;;;;;;10.83;5.00;;;13.80;99.90;;;;;;5036196;28;20206;-86
2022/05/09 04:58:04;;;;;;;11.17;5.23;;;13.90;99.90;;;;;;5018279;28;20173;-85
2022/05/09 05:00:31;;;;;;;12.63;5.57;;;13.90;99.90;;;;;;5004405;28;20692;-85
2022/05/09 05:02:57;;;;;;;9.63;4.87;;;13.90;99.90;;;;;;4998558;28;20177;-85
2022/05/09 05:05:24;;;;;;;13.00;5.27;;;14.00;99.90;;;;;;4998180;28;20190;-85
2022/05/09 05:07:50;;;;;;;8.90;5.17;;;14.10;99.90;;;;;;5001493;28;20234;-84
2022/05/09 05:10:17;;;;;;;10.87;5.13;;;14.00;99.90;;;;;;5017198;28;20180;-85
2022/05/09 05:12:43;;;;;;;9.07;5.20;;;14.10;99.90;;;;;;5017983;28;20214;-85
2022/05/09 05:15:09;;;;;;;15.73;5.80;;;14.20;99.90;;;;;;5034558;28;20238;-82
2022/05/09 05:17:36;;;;;;;9.20;5.83;;;14.20;99.90;;;;;;5014220;28;20185;-85
2022/05/09 05:20:04;;;;;;;8.37;5.37;;;14.20;99.90;;;;;;4998093;28;20188;-84
2022/05/09 05:22:34;;;;;;;13.03;5.87;;;14.30;99.90;;;;;;4998275;28;20176;-85
2022/05/09 05:24:59;;;;;;;10.30;5.10;;;14.50;99.90;;;;;;5015106;28;20202;-85
2022/05/09 05:27:26;;;;;;;15.13;5.30;;;14.60;99.90;;;;;;5022488;28;20686;-85
2022/05/09 05:29:55;;;;;;;9.27;4.93;;;14.70;99.90;;;;;;5017171;28;20187;-85
2022/05/09 05:32:26;;;;;;;11.37;5.23;;;14.90;99.90;;;;;;5015425;28;20190;-85
2022/05/09 05:34:52;;;;;;;11.47;4.87;;;15.10;99.90;;;;;;5016735;28;20326;-85
2022/05/09 05:37:18;;;;;;;8.37;5.10;;;15.10;99.50;;;;;;5017643;28;20639;-85
2022/05/09 05:39:46;;;;;;;9.00;4.90;;;15.20;98.10;;;;;;5017120;28;20196;-85
2022/05/09 05:42:14;;;;;;;8.30;4.73;;;15.20;97.50;;;;;;5017189;28;20199;-85
2022/05/09 05:44:41;;;;;;;18.90;5.67;;;15.30;97.30;;;;;;5013672;28;20273;-85
2022/05/09 05:47:08;;;;;;;8.37;4.50;;;15.30;96.70;;;;;;4997293;28;20199;-85
2022/05/09 05:49:36;;;;;;;13.57;5.30;;;15.30;96.60;;;;;;5000219;28;20194;-85
2022/05/09 05:52:03;;;;;;;34.87;7.07;;;15.40;96.60;;;;;;5017205;28;20642;-86
2022/05/09 05:54:36;;;;;;;8.60;5.40;;;15.30;96.10;;;;;;5016688;28;20698;-86
2022/05/09 05:57:03;;;;;;;10.43;5.33;;;15.50;95.80;;;;;;5028627;28;20176;-87
2022/05/09 05:59:29;;;;;;;11.00;5.00;;;15.50;95.10;;;;;;4998689;28;20183;-86
2022/05/09 06:51:06;;;;;;;10.20;4.80;;;17.10;92.40;;;;;;5374029;23;20231;-87
2022/05/09 06:53:32;;;;;;;9.97;4.47;;;17.10;92.40;;;;;;4996235;28;20191;-87
2022/05/09 06:55:58;;;;;;;8.13;4.23;;;17.40;91.80;;;;;;4996248;28;20251;-87
2022/05/09 06:58:25;;;;;;;10.40;4.97;;;17.30;92.00;;;;;;4996507;28;20177;-87
2022/05/09 07:00:52;;;;;;;10.23;4.73;;;17.50;91.80;;;;;;4996324;28;20180;-87
2022/05/09 07:03:19;;;;;;;10.63;4.47;;;17.60;91.60;;;;;;4995784;28;20656;-88
2022/05/09 07:05:45;;;;;;;10.50;5.00;;;17.70;91.20;;;;;;4996056;28;20169;-86
2022/05/09 07:08:12;;;;;;;10.50;4.23;;;17.80;91.00;;;;;;4996141;28;20268;-87
2022/05/09 07:10:38;;;;;;;9.60;5.13;;;17.70;91.60;;;;;;4996259;28;20544;-87
2022/05/09 07:13:04;;;;;;;14.17;5.30;;;17.90;91.10;;;;;;4996236;28;20211;-87
2022/05/09 07:15:32;;;;;;;8.93;4.70;;;18.00;90.80;;;;;;4996003;28;20236;-87
2022/05/09 07:17:59;;;;;;;13.73;4.10;;;18.10;90.20;;;;;;4996258;28;20173;-87
2022/05/09 07:20:27;;;;;;;8.47;4.37;;;18.20;90.40;;;;;;4998026;28;20189;-87
2022/05/09 07:22:56;;;;;;;8.97;4.57;;;18.20;90.40;;;;;;5000046;28;20181;-87
2022/05/09 07:25:24;;;;;;;12.00;4.57;;;18.40;89.70;;;;;;4983333;28;20267;-88
2022/05/09 07:27:51;;;;;;;9.03;4.27;;;18.40;89.70;;;;;;4987260;28;20202;-86
2022/05/09 07:30:19;;;;;;;7.77;3.80;;;18.50;89.70;;;;;;4978770;28;20186;-88
2022/05/09 07:32:45;;;;;;;10.27;4.50;;;18.50;90.00;;;;;;4992558;28;20194;-87
2022/05/09 07:35:14;;;;;;;8.03;4.03;;;18.70;89.50;;;;;;4978768;28;20246;-87
2022/05/09 07:37:40;;;;;;;6.50;3.90;;;18.80;88.50;;;;;;4975930;28;20721;-87
2022/05/09 07:40:11;;;;;;;7.83;4.33;;;18.90;88.20;;;;;;4976565;28;20183;-87
2022/05/09 07:42:37;;;;;;;11.60;4.47;;;19.10;86.70;;;;;;4979624;28;20269;-87
2022/05/09 07:45:04;;;;;;;8.50;4.43;;;19.30;86.30;;;;;;4980471;28;20215;-86
2022/05/09 07:47:30;;;;;;;10.83;4.43;;;19.30;86.50;;;;;;4980126;28;20178;-87
2022/05/09 07:49:56;;;;;;;10.30;4.80;;;19.20;86.00;;;;;;4980001;28;20229;-86
2022/05/09 07:52:24;;;;;;;7.67;4.10;;;19.20;85.30;;;;;;4980495;28;20675;-85
2022/05/09 07:54:51;;;;;;;10.97;4.80;;;19.20;86.30;;;;;;4980476;28;20307;-86
2022/05/09 07:57:18;;;;;;;9.50;4.20;;;19.30;85.90;;;;;;4980859;28;20177;-86
2022/05/09 07:59:43;;;;;;;7.50;4.27;;;19.60;85.00;;;;;;4981474;28;20195;-86
2022/05/09 08:02:09;;;;;;;12.40;4.97;;;19.40;85.80;;;;;;4996400;28;20186;-86
2022/05/09 08:04:35;;;;;;;9.40;4.10;;;19.30;86.50;;;;;;4995906;28;20190;-87
2022/05/09 08:07:02;;;;;;;10.63;3.70;;;19.50;85.40;;;;;;4996632;28;20724;-86
2022/05/09 08:09:28;;;;;;;10.80;4.63;;;19.50;85.70;;;;;;4989216;28;20208;-87
2022/05/09 08:11:55;;;;;;;9.73;4.40;;;19.50;85.70;;;;;;4980740;28;20176;-87
2022/05/09 08:14:21;;;;;;;6.67;3.30;;;19.60;86.40;;;;;;4980053;28;20215;-87
2022/05/09 08:16:47;;;;;;;11.20;4.47;;;19.70;84.60;;;;;;4980401;28;20267;-87
2022/05/09 08:19:14;;;;;;;11.80;4.63;;;19.80;84.60;;;;;;4979458;28;20186;-87
2022/05/09 08:21:40;;;;;;;10.47;3.43;;;19.80;84.40;;;;;;4980280;28;20184;-88
2022/05/09 08:24:06;;;;;;;9.67;3.30;;;19.80;83.80;;;;;;4979949;28;20177;-87
2022/05/09 08:26:32;;;;;;;9.33;2.57;;;19.90;82.50;;;;;;4979991;28;20203;-87
2022/05/09 08:28:58;;;;;;;7.07;3.03;;;20.10;82.50;;;;;;4979767;28;20207;-87
2022/05/09 08:31:23;;;;;;;4.37;2.60;;;20.20;80.60;;;;;;4980291;28;20189;-87
2022/05/09 08:33:51;;;;;;;7.87;2.87;;;20.30;80.80;;;;;;4979439;28;20185;-87
2022/05/09 08:39:04;;;;;;;3.63;1.87;;;20.40;77.40;;;;;;4997258;28;20192;-87
2022/05/09 08:41:57;;;;;;;7.87;2.50;;;20.40;77.90;;;;;;4979846;28;20271;-87
2022/05/09 08:44:31;;;;;;;4.73;1.83;;;20.50;78.40;;;;;;4979352;28;20182;-87
2022/05/09 08:47:37;;;;;;;5.47;1.77;;;20.50;76.00;;;;;;4979835;28;20633;-87
2022/05/09 08:50:25;;;;;;;3.77;2.00;;;20.70;74.90;;;;;;4979247;28;20207;-87
2022/05/09 08:52:53;;;;;;;4.73;1.70;;;20.80;74.80;;;;;;4979146;28;20193;-87
2022/05/09 08:55:26;;;;;;;5.70;1.73;;;20.80;74.30;;;;;;4979667;28;20221;-88
2022/05/09 08:58:05;;;;;;;5.17;2.27;;;20.90;73.50;;;;;;4979631;28;20217;-87
2022/05/09 09:00:31;;;;;;;3.27;1.70;;;20.90;74.50;;;;;;4979262;28;20217;-87
2022/05/09 09:03:00;;;;;;;5.30;2.10;;;20.80;74.00;;;;;;4979263;28;20185;-87
2022/05/09 09:05:32;;;;;;;3.93;2.20;;;20.90;73.30;;;;;;4979117;28;20268;-87
2022/05/09 09:08:11;;;;;;;6.07;1.90;;;20.90;72.90;;;;;;4979599;28;20181;-87
2022/05/09 09:11:04;;;;;;;4.30;2.07;;;21.00;72.80;;;;;;4979222;28;20657;-87
2022/05/09 09:13:59;;;;;;;6.43;2.00;;;21.10;73.30;;;;;;4979702;28;20605;-87
2022/05/09 09:16:33;;;;;;;5.07;1.67;;;21.00;73.00;;;;;;4978883;28;20197;-87
2022/05/09 09:19:05;;;;;;;5.40;1.63;;;21.00;72.70;;;;;;4978917;28;20629;-86
2022/05/09 09:21:36;;;;;;;12.70;1.90;;;21.20;71.70;;;;;;4979006;28;20201;-86
2022/05/09 09:24:17;;;;;;;4.20;1.50;;;21.10;70.40;;;;;;4978996;28;20190;-86
2022/05/09 09:26:54;;;;;;;7.63;1.60;;;21.20;70.50;;;;;;4978753;28;20259;-86
2022/05/09 09:29:28;;;;;;;4.10;1.80;;;21.30;70.90;;;;;;4978964;28;20192;-87
2022/05/09 09:32:11;;;;;;;4.53;1.80;;;21.20;71.20;;;;;;4978518;28;20582;-87
2022/05/09 09:34:59;;;;;;;4.20;1.50;;;21.30;71.70;;;;;;4978732;28;20216;-87
2022/05/09 09:37:47;;;;;;;3.23;1.57;;;21.30;69.90;;;;;;4978924;28;20651;-89
2022/05/09 09:40:13;;;;;;;6.63;1.40;;;21.30;69.80;;;;;;4978606;28;20170;-87
2022/05/09 09:42:38;;;;;;;12.27;1.90;;;21.40;69.30;;;;;;4979102;28;20277;-89
2022/05/09 09:45:15;;;;;;;12.03;1.87;;;21.50;70.00;;;;;;4978887;28;20265;-88
2022/05/09 09:47:41;;;;;;;5.47;1.50;;;21.50;68.20;;;;;;4979007;28;20185;-87
2022/05/09 09:50:14;;;;;;;5.93;1.73;;;21.40;68.00;;;;;;4978466;28;20201;-86
2022/05/09 09:52:50;;;;;;;5.23;1.40;;;21.60;68.70;;;;;;4978638;28;20189;-87
2022/05/09 09:55:30;;;;;;;38.77;3.70;;;21.70;69.90;;;;;;4978279;28;20296;-87
2022/05/09 09:57:58;;;;;;;10.97;2.07;;;21.80;68.90;;;;;;4978260;28;20201;-89
2022/05/09 10:00:30;;;;;;;2.83;1.70;;;21.70;69.50;;;;;;4978015;28;20524;-87
2022/05/09 10:03:18;;;;;;;4.50;2.20;;;21.80;68.50;;;;;;4978352;28;20186;-87
2022/05/09 10:05:45;;;;;;;3.93;1.70;;;21.90;67.70;;;;;;4978166;28;20196;-87
2022/05/09 10:08:29;;;;;;;3.13;1.40;;;22.00;67.40;;;;;;4978552;28;20637;-87
2022/05/09 10:11:01;;;;;;;4.87;1.60;;;21.90;67.70;;;;;;4978163;28;20188;-87
2022/05/09 10:13:36;;;;;;;5.50;2.20;;;21.70;68.50;;;;;;4978152;28;20182;-88
2022/05/09 10:16:11;;;;;;;4.93;1.80;;;21.80;68.70;;;;;;4977879;28;20224;-87
2022/05/09 10:18:37;;;;;;;5.23;1.90;;;21.70;68.60;;;;;;4978375;28;20235;-87
2022/05/09 10:24:50;;;;;;;4.53;1.93;;;21.80;68.40;;;;;;4997219;28;20197;-88
2022/05/09 10:27:28;;;;;;;4.33;1.73;;;22.00;68.20;;;;;;4979617;28;20197;-89
2022/05/09 10:29:57;;;;;;;4.90;2.60;;;22.20;68.10;;;;;;4978412;28;20181;-88
2022/05/09 10:32:52;;;;;;;6.47;2.07;;;22.20;67.70;;;;;;4980053;28;20217;-88
2022/05/09 10:35:26;;;;;;;5.90;1.87;;;22.10;68.40;;;;;;4979720;28;20214;-87
2022/05/09 10:38:01;;;;;;;7.00;1.60;;;22.30;69.00;;;;;;4979239;28;20704;-87
2022/05/09 10:40:37;;;;;;;6.37;1.80;;;22.30;68.50;;;;;;4977884;28;20189;-87
2022/05/09 10:43:06;;;;;;;3.97;1.87;;;22.30;69.20;;;;;;4977830;28;20177;-87
2022/05/09 10:45:44;;;;;;;6.63;1.53;;;22.40;68.10;;;;;;4977250;28;20185;-87
2022/05/09 10:48:29;;;;;;;5.33;1.63;;;22.50;67.90;;;;;;4977554;28;20632;-87
2022/05/09 10:51:04;;;;;;;4.10;1.50;;;22.50;68.60;;;;;;4977257;28;20186;-86
2022/05/09 10:53:48;;;;;;;4.20;1.60;;;22.60;68.00;;;;;;4977361;28;20219;-87
2022/05/09 10:56:20;;;;;;;6.57;2.30;;;22.70;68.50;;;;;;4977490;28;20198;-87
2022/05/09 10:59:00;;;;;;;4.43;1.90;;;22.70;67.70;;;;;;4977172;28;20643;-87
2022/05/09 11:01:51;;;;;;;4.47;2.10;;;22.90;68.60;;;;;;4977399;28;20257;-87
2022/05/09 11:04:17;;;;;;;8.60;2.57;;;23.00;68.80;;;;;;4977358;28;20540;-87
2022/05/09 11:07:02;;;;;;;3.77;1.70;;;23.00;68.60;;;;;;4977134;28;20534;-88
2022/05/09 11:10:04;;;;;;;6.07;2.20;;;23.20;68.50;;;;;;4977429;28;20181;-87
2022/05/09 11:12:56;;;;;;;7.37;2.47;;;23.30;68.80;;;;;;4976686;28;20244;-88
2022/05/09 11:15:37;;;;;;;5.47;2.30;;;23.90;68.00;;;;;;4976753;28;20221;-87
2022/05/09 11:18:17;;;;;;;7.00;2.17;;;24.80;67.20;;;;;;4976882;28;20186;-87
2022/05/09 11:21:07;;;;;;;6.17;2.50;;;26.10;66.00;;;;;;4977368;28;20284;-87
2022/05/09 11:23:53;;;;;;;7.00;2.80;;;27.50;63.50;;;;;;4976823;28;20214;-87
2022/05/09 11:26:27;;;;;;;4.93;2.60;;;28.40;61.20;;;;;;4976784;28;20182;-88
2022/05/09 11:29:02;;;;;;;4.73;2.60;;;29.50;59.70;;;;;;4976656;28;20557;-87
2022/05/09 11:31:31;;;;;;;10.38;3.10;;;30.70;59.60;;;;;;4976969;28;20193;-88
2022/05/09 11:34:36;;;;;;;5.00;3.35;;;31.70;57.70;;;;;;4977344;28;20614;-88
2022/05/09 11:37:45;;;;;;;6.70;2.70;;;32.00;55.80;;;;;;4976311;28;20182;-88
2022/05/09 11:40:36;;;;;;;7.65;2.85;;;32.70;55.70;;;;;;4941105;28;20202;-88
2022/05/09 11:43:50;;;;;;;7.95;2.85;;;33.30;53.90;;;;;;4976712;28;20189;-88
2022/05/09 11:46:41;;;;;;;5.43;3.38;;;34.10;52.70;;;;;;4977478;28;20180;-88
2022/05/09 11:49:28;;;;;;;6.05;2.72;;;34.50;51.70;;;;;;4977503;28;20228;-88
2022/05/09 11:52:01;;;;;;;5.80;3.03;;;34.20;51.50;;;;;;4978517;28;20205;-88
2022/05/09 11:54:53;;;;;;;7.72;2.95;;;34.20;52.10;;;;;;4979611;28;20289;-88
2022/05/09 11:57:26;;;;;;;7.15;3.03;;;34.50;51.20;;;;;;4974620;28;20186;-88
2022/05/09 11:59:59;;;;;;;5.30;2.65;;;34.70;51.00;;;;;;4977557;28;20182;-88
2022/05/09 12:02:46;;;;;;;4.75;3.08;;;35.10;51.10;;;;;;4979555;28;20182;-88
2022/05/09 12:05:31;;;;;;;4.07;2.85;;;35.40;50.00;;;;;;4978483;28;20178;-88
2022/05/09 12:08:08;;;;;;;6.90;3.47;;;36.20;49.60;;;;;;4977228;28;20198;-88
2022/05/09 12:10:40;;;;;;;5.10;3.30;;;36.50;49.10;;;;;;4976475;28;20705;-88
2022/05/09 12:13:38;;;;;;;5.75;3.00;;;37.00;48.40;;;;;;4976470;28;20196;-87
2022/05/09 12:16:04;;;;;;;5.63;2.90;;;36.60;48.20;;;;;;4976497;28;20264;-88
2022/05/09 12:18:51;;;;;;;6.22;2.78;;;36.20;49.00;;;;;;4976220;28;20204;-88
2022/05/09 12:21:37;;;;;;;4.90;2.70;;;36.10;49.10;;;;;;4976684;28;20212;-87
2022/05/09 12:24:14;;;;;;;6.20;2.42;;;36.10;49.20;;;;;;4976580;28;20228;-89
2022/05/09 12:26:42;;;;;;;5.00;2.80;;;35.70;49.00;;;;;;4976501;28;20252;-87
2022/05/09 12:29:11;;;;;;;4.53;2.85;;;35.90;49.30;;;;;;4980158;28;20182;-88
2022/05/09 12:31:40;;;;;;;4.93;2.67;;;36.80;49.20;;;;;;4979890;28;20193;-86
2022/05/09 12:34:10;;;;;;;7.57;3.42;;;37.90;48.30;;;;;;4979611;28;20591;-87
2022/05/09 12:36:37;;;;;;;6.47;3.30;;;38.60;47.40;;;;;;4979900;28;20224;-87
2022/05/09 12:39:30;;;;;;;5.07;2.95;;;38.40;46.50;;;;;;4979909;28;20174;-87
2022/05/09 12:41:58;;;;;;;4.97;3.13;;;37.00;47.70;;;;;;4984865;28;20192;-88
2022/05/09 12:44:27;;;;;;;4.82;2.83;;;36.80;48.00;;;;;;4984482;28;20174;-88
2022/05/09 12:46:55;;;;;;;8.95;3.45;;;37.40;48.10;;;;;;4982914;28;20174;-87
2022/05/09 12:49:26;;;;;;;5.68;3.38;;;38.30;47.20;;;;;;4979788;28;20198;-89
2022/05/09 12:51:56;;;;;;;6.90;3.72;;;38.00;46.90;;;;;;4979759;28;20280;-89
2022/05/09 12:54:25;;;;;;;6.85;3.60;;;37.00;48.00;;;;;;4979248;28;20559;-88
2022/05/09 12:56:59;;;;;;;26.25;4.78;;;36.60;47.80;;;;;;4979762;28;20174;-88
2022/05/09 12:59:27;;;;;;;7.57;3.45;;;36.90;47.60;;;;;;4979517;28;20223;-87
2022/05/09 13:01:57;;;;;;;4.53;3.30;;;37.40;47.20;;;;;;4979486;28;20197;-88
2022/05/09 13:04:32;;;;;;;4.13;3.17;;;36.60;47.50;;;;;;4979434;28;20178;-88
2022/05/09 13:07:04;;;;;;;6.05;3.10;;;36.20;48.00;;;;;;4979339;28;20231;-87
2022/05/09 13:09:34;;;;;;;6.47;3.63;;;36.90;48.20;;;;;;4979162;28;20626;-87
2022/05/09 13:12:08;;;;;;;7.93;3.78;;;37.70;47.60;;;;;;4979430;28;20260;-88
2022/05/09 13:14:40;;;;;;;4.97;3.55;;;37.80;46.40;;;;;;4979158;28;20249;-90
2022/05/09 13:17:23;;;;;;;7.25;3.63;;;36.50;47.10;;;;;;4979363;28;20638;-88
2022/05/09 13:19:52;;;;;;;7.50;4.13;;;35.70;48.00;;;;;;4979277;28;20186;-88
2022/05/09 13:22:30;;;;;;;8.15;4.05;;;35.00;48.50;;;;;;4979138;28;20272;-89
2022/05/09 13:24:58;;;;;;;5.03;3.90;;;35.20;48.40;;;;;;4979139;28;20178;-89
2022/05/09 13:27:25;;;;;;;7.22;4.38;;;34.20;49.20;;;;;;4979228;28;20198;-88
2022/05/09 13:29:53;;;;;;;4.47;3.63;;;34.20;49.50;;;;;;4978855;28;20177;-88
2022/05/09 13:32:29;;;;;;;6.15;3.67;;;35.00;49.50;;;;;;4979499;28;20216;-89
2022/05/09 13:34:57;;;;;;;5.90;3.38;;;35.70;48.50;;;;;;4978767;28;20205;-89
2022/05/09 13:37:31;;;;;;;4.85;3.70;;;36.10;48.10;;;;;;4978898;28;20206;-89
2022/05/09 13:40:04;;;;;;;7.20;4.00;;;36.60;48.10;;;;;;4978758;28;20264;-89
2022/05/09 13:42:32;;;;;;;8.13;3.75;;;36.50;48.30;;;;;;4978675;28;20217;-89
2022/05/09 13:45:02;;;;;;;5.90;3.83;;;36.60;47.80;;;;;;4978822;28;20178;-89
2022/05/09 13:47:30;;;;;;;5.70;3.80;;;37.10;48.30;;;;;;4978770;28;20182;-87
2022/05/09 13:49:58;;;;;;;6.40;3.63;;;37.50;47.60;;;;;;4978611;28;20182;-87
2022/05/09 13:52:46;;;;;;;6.78;2.78;;;38.00;47.90;;;;;;4978641;28;20189;-89
2022/05/09 13:55:29;;;;;;;6.65;3.70;;;38.40;47.10;;;;;;4978260;28;20316;-87
2022/05/09 13:57:56;;;;;;;6.22;3.95;;;39.00;46.40;;;;;;4978610;28;20178;-87
2022/05/09 14:00:28;;;;;;;6.60;4.05;;;39.30;46.40;;;;;;4978531;28;20197;-87
2022/05/09 14:02:57;;;;;;;6.22;3.83;;;39.30;45.80;;;;;;4978412;28;20184;-87
2022/05/09 14:05:29;;;;;;;6.90;3.53;;;39.20;46.30;;;;;;4978424;28;20634;-88
2022/05/09 14:08:00;;;;;;;7.00;3.97;;;39.90;46.30;;;;;;4978359;28;20177;-87